Time;durP1;ratioP1;P1;durP2;ratioP2;P2;SDS_P1;SDS_P2;PMS_P1;PMS_P2;Temp;Humidity;BMP_temperature;BMP_pressure;BME280_temperature;BME280_humidity;BME280_pressure;Samples;Min_cycle;Max_cycle;Signal;HPM_P1;HPM_P2
2023/09/18 00:01:56;;;;;;;8.75;7.85;;;19.90;90.10;;;;;;5114540;28;20361;-35
2023/09/18 00:04:21;;;;;;;8.65;7.85;;;19.90;90.10;;;;;;5108227;28;20024;-36
2023/09/18 00:06:48;;;;;;;8.40;7.60;;;19.90;90.10;;;;;;5096256;28;20020;-34
2023/09/18 00:09:13;;;;;;;8.75;7.78;;;19.90;90.10;;;;;;5114309;28;20028;-36
2023/09/18 00:11:40;;;;;;;8.77;7.88;;;19.90;90.10;;;;;;5114539;28;20360;-36
2023/09/18 00:14:07;;;;;;;9.30;8.40;;;19.90;90.10;;;;;;5114465;28;20484;-36
2023/09/18 00:16:32;;;;;;;9.55;8.52;;;19.90;90.10;;;;;;5114653;28;20023;-37
2023/09/18 00:18:58;;;;;;;10.00;7.60;;;19.90;90.10;;;;;;5114262;28;20027;-36
2023/09/18 00:21:25;;;;;;;9.27;8.35;;;19.90;90.10;;;;;;5114372;28;20103;-36
2023/09/18 00:23:51;;;;;;;8.85;7.95;;;19.90;90.10;;;;;;5114170;28;20055;-36
2023/09/18 00:26:17;;;;;;;8.43;7.53;;;19.90;90.10;;;;;;5113987;28;20027;-34
2023/09/18 00:28:42;;;;;;;8.57;7.65;;;19.90;90.10;;;;;;5114383;28;20062;-37
2023/09/18 00:31:08;;;;;;;9.02;8.13;;;19.90;90.10;;;;;;5113965;28;20059;-36
2023/09/18 00:33:34;;;;;;;9.23;8.32;;;19.90;90.10;;;;;;5113756;28;20030;-36
2023/09/18 00:35:59;;;;;;;8.35;7.55;;;19.90;90.10;;;;;;5114227;28;20011;-35
2023/09/18 00:38:25;;;;;;;9.23;8.23;;;19.90;90.10;;;;;;5113708;28;20012;-34
2023/09/18 00:40:50;;;;;;;8.07;7.25;;;19.90;90.10;;;;;;5095556;28;20046;-36
2023/09/18 00:43:17;;;;;;;8.38;7.55;;;19.90;90.10;;;;;;5113628;28;20024;-36
2023/09/18 00:45:47;;;;;;;10.32;8.50;;;19.90;90.10;;;;;;5113538;28;20066;-35
2023/09/18 00:48:15;;;;;;;8.60;7.75;;;19.90;90.10;;;;;;5113760;28;20107;-36
2023/09/18 00:50:43;;;;;;;8.65;7.75;;;19.90;90.10;;;;;;5113580;28;20102;-35
2023/09/18 00:53:10;;;;;;;8.23;7.43;;;19.90;90.10;;;;;;5113358;28;20024;-35
2023/09/18 00:55:37;;;;;;;9.48;8.10;;;19.90;90.10;;;;;;5110525;28;20047;-35
2023/09/18 00:58:04;;;;;;;8.95;8.05;;;19.90;90.10;;;;;;5113367;28;20392;-35
2023/09/18 01:00:30;;;;;;;8.95;7.95;;;19.90;90.10;;;;;;5113052;28;20027;-32
2023/09/18 01:02:56;;;;;;;10.05;8.38;;;19.90;90.40;;;;;;5112750;28;20019;-34
2023/09/18 01:05:21;;;;;;;7.90;7.10;;;19.80;90.10;;;;;;5113401;28;20064;-35
2023/09/18 01:07:47;;;;;;;9.50;8.27;;;19.90;90.10;;;;;;5113133;28;20023;-35
2023/09/18 01:10:16;;;;;;;9.10;8.18;;;19.90;90.10;;;;;;5113081;28;20035;-37
2023/09/18 01:13:00;;;;;;;8.82;7.93;;;19.80;90.10;;;;;;5113143;28;20411;-37
2023/09/18 01:15:45;;;;;;;12.95;8.32;;;19.90;90.20;;;;;;5113024;28;20337;-35
2023/09/18 01:18:11;;;;;;;9.43;8.15;;;19.80;90.10;;;;;;5113229;28;20102;-34
2023/09/18 01:20:37;;;;;;;10.57;8.45;;;19.80;90.20;;;;;;5113379;28;20113;-36
2023/09/18 01:23:02;;;;;;;8.60;7.22;;;19.80;90.20;;;;;;5113079;28;20032;-35
2023/09/18 01:25:32;;;;;;;9.00;8.10;;;19.80;90.20;;;;;;5112794;28;20033;-40
2023/09/18 01:27:57;;;;;;;9.10;8.18;;;19.80;90.20;;;;;;5094864;28;20039;-36
2023/09/18 01:30:24;;;;;;;8.77;7.88;;;19.80;90.20;;;;;;5112800;28;20043;-37
2023/09/18 01:32:51;;;;;;;8.48;7.55;;;19.80;90.20;;;;;;5112476;28;20027;-37
2023/09/18 01:35:17;;;;;;;9.35;8.38;;;19.80;90.20;;;;;;5112594;28;20089;-40
2023/09/18 01:37:44;;;;;;;9.68;8.77;;;19.80;90.20;;;;;;5112610;28;20024;-42
2023/09/18 01:40:11;;;;;;;11.07;8.25;;;19.70;90.20;;;;;;5112552;28;20024;-35
2023/09/18 01:42:37;;;;;;;9.25;8.27;;;19.70;90.20;;;;;;5112553;28;20028;-37
2023/09/18 01:45:05;;;;;;;10.27;8.95;;;19.70;90.20;;;;;;5112799;28;20047;-36
2023/09/18 01:47:30;;;;;;;9.43;8.20;;;19.80;90.20;;;;;;5112307;28;20028;-38
2023/09/18 01:49:56;;;;;;;9.73;8.73;;;19.70;90.20;;;;;;5112756;28;20099;-37
2023/09/18 01:52:22;;;;;;;11.98;9.43;;;19.80;90.30;;;;;;5093848;28;20482;-34
2023/09/18 01:54:48;;;;;;;10.13;8.55;;;19.80;90.20;;;;;;5093836;28;20023;-35
2023/09/18 01:57:13;;;;;;;8.65;7.82;;;19.80;90.30;;;;;;5112494;28;20169;-35
2023/09/18 01:59:39;;;;;;;9.43;8.23;;;19.80;90.20;;;;;;5112597;28;20125;-35
2023/09/18 02:02:07;;;;;;;10.50;8.50;;;19.80;90.20;;;;;;5111916;28;20020;-35
2023/09/18 02:04:33;;;;;;;9.32;8.43;;;19.80;90.20;;;;;;5112448;28;20385;-36
2023/09/18 02:06:59;;;;;;;9.15;8.25;;;19.80;90.20;;;;;;5112229;28;20034;-36
2023/09/18 02:09:24;;;;;;;11.93;8.68;;;19.80;90.20;;;;;;5112115;28;20032;-35
2023/09/18 02:11:50;;;;;;;9.27;8.38;;;19.80;90.20;;;;;;5112306;28;20110;-35
2023/09/18 02:14:15;;;;;;;9.43;8.15;;;19.80;90.20;;;;;;5112061;28;20481;-35
2023/09/18 02:16:43;;;;;;;9.15;8.25;;;19.80;90.20;;;;;;5112179;28;20045;-35
2023/09/18 02:19:09;;;;;;;9.45;8.45;;;19.80;90.20;;;;;;5112235;28;20041;-36
2023/09/18 02:21:35;;;;;;;9.48;8.05;;;19.80;90.20;;;;;;5112048;28;20163;-35
2023/09/18 02:24:01;;;;;;;9.02;8.13;;;19.80;90.20;;;;;;5111800;28;20538;-36
2023/09/18 02:26:27;;;;;;;9.20;7.93;;;19.80;90.20;;;;;;5112392;28;20107;-35
2023/09/18 02:28:54;;;;;;;10.13;8.68;;;19.80;90.20;;;;;;5112118;28;20122;-37
2023/09/18 02:31:20;;;;;;;8.98;8.10;;;19.80;90.20;;;;;;5111930;28;20047;-36
2023/09/18 02:33:46;;;;;;;9.13;8.23;;;19.80;90.20;;;;;;5111877;28;20074;-36
2023/09/18 02:36:12;;;;;;;9.10;8.15;;;19.90;90.20;;;;;;5112248;28;20054;-36
2023/09/18 02:38:38;;;;;;;10.07;8.90;;;19.90;90.20;;;;;;5112255;28;20107;-34
2023/09/18 02:41:03;;;;;;;9.88;8.43;;;19.90;90.20;;;;;;5112220;28;20484;-36
2023/09/18 02:43:29;;;;;;;8.75;7.85;;;19.90;90.20;;;;;;5111602;28;20039;-36
2023/09/18 02:45:54;;;;;;;8.75;7.85;;;19.90;90.10;;;;;;5111854;28;20023;-39
2023/09/18 02:48:20;;;;;;;10.93;8.07;;;19.90;90.10;;;;;;5105541;28;20073;-36
2023/09/18 02:50:46;;;;;;;9.40;8.38;;;19.90;90.10;;;;;;5112009;28;20448;-36
2023/09/18 02:53:20;;;;;;;11.38;7.65;;;20.00;90.10;;;;;;5111393;28;20032;-38
2023/09/18 02:55:49;;;;;;;8.20;7.40;;;20.00;90.10;;;;;;5112149;28;20384;-34
2023/09/18 02:58:15;;;;;;;9.27;7.97;;;20.00;90.10;;;;;;5112123;28;20050;-37
2023/09/18 03:00:44;;;;;;;10.00;7.63;;;20.00;90.00;;;;;;5090617;28;20028;-36
2023/09/18 03:03:10;;;;;;;9.18;8.00;;;20.00;90.00;;;;;;5111880;28;20031;-36
2023/09/18 03:05:36;;;;;;;10.25;8.05;;;20.10;90.00;;;;;;5093487;28;20357;-36
2023/09/18 03:08:02;;;;;;;10.25;7.95;;;20.10;90.00;;;;;;5111692;28;20412;-36
2023/09/18 03:10:28;;;;;;;9.27;7.95;;;20.10;90.00;;;;;;5111892;28;20035;-41
2023/09/18 03:12:53;;;;;;;10.27;7.82;;;20.10;90.00;;;;;;5111534;28;20030;-36
2023/09/18 03:15:19;;;;;;;10.13;7.50;;;20.10;90.00;;;;;;5115105;28;20043;-36
2023/09/18 03:17:45;;;;;;;10.80;7.72;;;20.10;90.00;;;;;;5115494;28;20360;-35
2023/09/18 03:20:11;;;;;;;8.75;7.75;;;20.00;90.00;;;;;;5115222;28;20448;-38
2023/09/18 03:22:36;;;;;;;9.93;7.40;;;20.00;90.00;;;;;;5115317;28;20028;-33
2023/09/18 03:25:02;;;;;;;10.15;7.93;;;20.00;90.00;;;;;;5096989;28;20059;-34
2023/09/18 03:27:28;;;;;;;7.95;7.15;;;20.10;90.00;;;;;;5115361;28;20158;-36
2023/09/18 03:29:57;;;;;;;8.65;7.22;;;20.10;90.00;;;;;;5115639;28;20416;-36
2023/09/18 03:32:23;;;;;;;8.80;7.50;;;20.10;90.00;;;;;;5115628;28;20387;-37
2023/09/18 03:34:52;;;;;;;8.20;7.40;;;20.10;90.00;;;;;;5115060;28;20019;-36
2023/09/18 03:37:17;;;;;;;8.73;7.72;;;20.10;90.00;;;;;;5115362;28;20024;-35
2023/09/18 03:39:43;;;;;;;11.80;9.32;;;20.10;90.00;;;;;;5114986;28;20537;-35
2023/09/18 03:42:12;;;;;;;8.75;7.82;;;20.10;89.90;;;;;;5115047;28;20031;-36
2023/09/18 03:44:37;;;;;;;9.07;7.03;;;20.10;89.90;;;;;;5114573;28;20426;-35
2023/09/18 03:47:03;;;;;;;8.13;7.03;;;20.20;89.90;;;;;;5114727;28;20054;-42
2023/09/18 03:49:29;;;;;;;10.88;7.45;;;20.20;89.90;;;;;;5114693;28;20107;-35
2023/09/18 03:51:54;;;;;;;8.05;7.25;;;20.20;89.90;;;;;;5114590;28;20027;-34
2023/09/18 03:54:21;;;;;;;9.13;7.32;;;20.20;89.80;;;;;;5114338;28;20027;-45
2023/09/18 03:56:47;;;;;;;8.90;6.80;;;20.20;89.80;;;;;;5114530;28;20042;-35
2023/09/18 03:59:13;;;;;;;10.25;7.40;;;20.20;89.80;;;;;;5114852;28;20595;-36
2023/09/18 04:01:39;;;;;;;7.88;6.80;;;20.30;89.80;;;;;;5114617;28;20082;-36
2023/09/18 04:04:05;;;;;;;10.88;7.65;;;20.30;89.80;;;;;;5114766;28;20377;-34
2023/09/18 04:06:42;;;;;;;7.80;6.85;;;20.30;89.80;;;;;;5114528;28;20023;-35
2023/09/18 04:09:08;;;;;;;9.35;7.65;;;20.30;89.80;;;;;;5114729;28;20389;-33
2023/09/18 04:11:33;;;;;;;8.82;7.55;;;20.30;89.70;;;;;;5114502;28;20026;-36
2023/09/18 04:14:00;;;;;;;9.38;7.80;;;20.30;89.70;;;;;;5114363;28;20415;-35
2023/09/18 04:16:37;;;;;;;8.13;7.13;;;20.30;89.70;;;;;;5114203;28;20028;-36
2023/09/18 04:19:03;;;;;;;10.05;7.63;;;20.20;89.70;;;;;;5114450;28;20024;-35
2023/09/18 04:21:29;;;;;;;8.38;7.15;;;20.30;89.80;;;;;;5096219;28;20444;-37
2023/09/18 04:23:57;;;;;;;8.02;7.22;;;20.30;89.70;;;;;;5114203;28;20024;-35
2023/09/18 04:26:30;;;;;;;9.48;6.72;;;20.30;89.80;;;;;;5114439;28;20020;-36
2023/09/18 04:28:56;;;;;;;;;;;20.30;89.80;;;;;;5114275;28;20035;-34
2023/09/18 04:31:22;;;;;;;8.30;6.13;;;20.20;89.70;;;;;;5113988;28;19953;-36
2023/09/18 04:33:48;;;;;;;8.25;6.95;;;20.20;89.70;;;;;;5114102;28;20028;-36
2023/09/18 04:36:13;;;;;;;9.93;7.07;;;20.20;89.70;;;;;;5114218;28;20023;-36
2023/09/18 04:38:39;;;;;;;8.32;6.93;;;20.20;89.70;;;;;;5113846;28;20026;-38
2023/09/18 04:41:06;;;;;;;7.50;6.38;;;20.20;89.70;;;;;;5113864;28;20418;-37
2023/09/18 04:43:34;;;;;;;8.93;7.07;;;20.20;89.80;;;;;;5113961;28;20024;-35
2023/09/18 04:46:00;;;;;;;9.07;7.03;;;20.20;89.80;;;;;;5113534;28;20608;-35
2023/09/18 04:48:26;;;;;;;7.63;6.65;;;20.20;89.90;;;;;;5113539;28;20059;-34
2023/09/18 04:50:52;;;;;;;8.85;7.20;;;20.10;89.90;;;;;;5113534;28;20493;-35
2023/09/18 04:53:17;;;;;;;7.78;6.97;;;20.10;89.90;;;;;;5113264;28;20024;-35
2023/09/18 04:55:43;;;;;;;9.18;6.18;;;20.10;90.00;;;;;;5113854;28;20102;-37
2023/09/18 04:58:08;;;;;;;11.60;6.70;;;20.10;90.00;;;;;;5113409;28;20051;-35
2023/09/18 05:00:34;;;;;;;7.75;6.00;;;20.10;90.00;;;;;;5113939;28;20020;-37
2023/09/18 05:03:01;;;;;;;7.75;6.00;;;20.10;90.00;;;;;;5113279;28;20048;-35
2023/09/18 05:05:30;;;;;;;8.48;6.13;;;20.20;90.00;;;;;;5113266;28;20061;-41
2023/09/18 05:07:56;;;;;;;6.53;5.32;;;20.20;90.00;;;;;;5113534;28;20027;-35
2023/09/18 05:10:21;;;;;;;8.18;5.55;;;20.30;90.00;;;;;;5113451;28;20019;-35
2023/09/18 05:12:50;;;;;;;10.43;5.38;;;20.30;89.90;;;;;;5113035;28;20090;-35
2023/09/18 05:15:16;;;;;;;5.85;5.10;;;20.30;89.90;;;;;;5112936;28;20020;-35
2023/09/18 05:17:45;;;;;;;7.63;5.35;;;20.30;89.80;;;;;;5113350;28;20020;-36
2023/09/18 05:20:13;;;;;;;9.60;6.88;;;20.40;89.80;;;;;;5113107;28;20028;-36
2023/09/18 05:22:39;;;;;;;8.18;5.35;;;20.40;89.80;;;;;;5112778;28;20028;-36
2023/09/18 05:25:05;;;;;;;7.15;4.90;;;20.40;89.80;;;;;;5113214;28;20115;-37
2023/09/18 05:27:31;;;;;;;6.18;4.93;;;20.40;89.80;;;;;;5094529;28;20055;-35
2023/09/18 05:29:56;;;;;;;6.40;4.75;;;20.40;89.80;;;;;;5112969;28;20392;-39
2023/09/18 05:32:22;;;;;;;8.10;5.40;;;20.40;89.90;;;;;;5112652;28;20335;-35
2023/09/18 05:34:48;;;;;;;7.15;4.85;;;20.40;89.90;;;;;;5112809;28;20078;-35
2023/09/18 05:37:13;;;;;;;7.25;5.18;;;20.40;89.90;;;;;;5112065;28;20381;-37
2023/09/18 05:39:40;;;;;;;12.18;5.43;;;20.40;89.90;;;;;;5113093;28;20153;-35
2023/09/18 05:42:05;;;;;;;8.07;5.68;;;20.40;90.00;;;;;;5112969;28;20070;-36
2023/09/18 05:44:31;;;;;;;6.72;5.57;;;20.40;90.00;;;;;;5112438;28;20023;-36
2023/09/18 05:46:56;;;;;;;8.63;5.30;;;20.40;90.00;;;;;;5112579;28;20023;-37
2023/09/18 05:49:22;;;;;;;6.47;5.35;;;20.40;90.10;;;;;;5112763;28;20031;-34
2023/09/18 05:51:48;;;;;;;6.93;5.40;;;20.30;90.10;;;;;;5112258;28;20019;-35
2023/09/18 05:54:14;;;;;;;6.82;6.07;;;20.40;90.10;;;;;;5112556;28;20012;-37
2023/09/18 05:56:39;;;;;;;7.28;5.45;;;20.30;90.10;;;;;;5112702;28;20372;-35
2023/09/18 05:59:05;;;;;;;7.63;6.25;;;20.30;90.20;;;;;;5112348;28;20016;-36
2023/09/18 06:01:32;;;;;;;9.65;6.55;;;20.30;90.20;;;;;;5112563;28;20099;-36
2023/09/18 06:03:58;;;;;;;7.43;6.20;;;20.30;90.20;;;;;;5112399;28;20453;-45
2023/09/18 06:06:25;;;;;;;11.32;6.88;;;20.30;90.20;;;;;;5112424;28;20030;-38
2023/09/18 06:08:53;;;;;;;10.65;6.57;;;20.30;90.30;;;;;;5112583;28;20474;-37
2023/09/18 06:11:19;;;;;;;8.88;6.47;;;20.30;90.30;;;;;;5112231;28;20016;-36
2023/09/18 06:13:44;;;;;;;6.60;5.97;;;20.30;90.30;;;;;;5112296;28;20057;-37
2023/09/18 06:16:10;;;;;;;8.70;6.45;;;20.40;90.30;;;;;;5093796;28;20384;-35
2023/09/18 06:18:38;;;;;;;9.18;6.05;;;20.40;90.40;;;;;;5112160;28;20035;-36
2023/09/18 06:21:04;;;;;;;9.02;5.95;;;20.40;90.30;;;;;;5112050;28;20027;-37
2023/09/18 06:23:29;;;;;;;9.50;6.40;;;20.50;90.40;;;;;;5111843;28;20024;-36
2023/09/18 06:25:56;;;;;;;7.45;5.70;;;20.40;90.30;;;;;;5112053;28;20035;-38
2023/09/18 06:28:22;;;;;;;8.25;5.75;;;20.50;90.30;;;;;;5111673;28;20032;-37
2023/09/18 06:30:48;;;;;;;9.80;5.85;;;20.50;90.30;;;;;;5111874;28;20026;-35
2023/09/18 06:33:14;;;;;;;10.25;5.97;;;20.60;90.30;;;;;;5112039;28;20020;-36
2023/09/18 06:35:39;;;;;;;8.85;6.28;;;20.60;90.30;;;;;;5111841;28;20012;-37
2023/09/18 06:38:06;;;;;;;9.55;5.80;;;20.60;90.20;;;;;;5111870;28;20449;-37
2023/09/18 06:40:32;;;;;;;8.60;5.25;;;20.60;90.20;;;;;;5112093;28;20016;-38
2023/09/18 06:43:01;;;;;;;7.47;5.70;;;20.70;90.20;;;;;;5111947;28;20073;-36
2023/09/18 06:45:27;;;;;;;8.45;5.40;;;20.70;90.20;;;;;;5111558;28;20024;-36
2023/09/18 06:47:53;;;;;;;9.23;6.55;;;20.70;90.20;;;;;;5113149;28;20092;-38
2023/09/18 06:50:19;;;;;;;7.10;5.63;;;20.70;90.20;;;;;;5116209;28;20095;-35
2023/09/18 06:52:46;;;;;;;7.93;5.43;;;20.70;90.20;;;;;;5115514;28;20454;-37
2023/09/18 06:55:12;;;;;;;8.85;5.05;;;20.70;90.20;;;;;;5115948;28;20012;-35
2023/09/18 06:57:38;;;;;;;6.72;5.30;;;20.70;90.20;;;;;;5115743;28;20408;-35
2023/09/18 07:00:05;;;;;;;7.32;5.10;;;20.70;90.20;;;;;;5115852;28;20477;-35
2023/09/18 07:02:30;;;;;;;7.10;5.03;;;20.70;90.20;;;;;;5115470;28;20024;-34
2023/09/18 07:04:56;;;;;;;6.13;4.55;;;20.70;90.50;;;;;;5115400;28;20503;-38
2023/09/18 07:07:25;;;;;;;6.50;4.50;;;20.80;90.20;;;;;;5114247;28;20102;-35
2023/09/18 07:09:51;;;;;;;5.60;4.07;;;20.70;90.10;;;;;;5114444;28;20544;-35
2023/09/18 07:12:19;;;;;;;3.83;3.42;;;20.80;90.10;;;;;;5114005;28;20031;-32
2023/09/18 07:14:45;;;;;;;6.13;3.53;;;20.80;90.00;;;;;;5114817;28;20561;-36
2023/09/18 07:17:11;;;;;;;3.47;3.15;;;20.80;89.80;;;;;;5115625;28;20525;-36
2023/09/18 07:19:36;;;;;;;3.40;3.10;;;20.90;89.70;;;;;;5115502;28;20028;-36
2023/09/18 07:22:02;;;;;;;4.63;3.10;;;20.90;89.50;;;;;;5115304;28;20020;-36
2023/09/18 07:24:28;;;;;;;4.45;3.00;;;20.90;89.30;;;;;;5115462;28;20073;-35
2023/09/18 07:26:54;;;;;;;4.75;2.72;;;21.00;89.30;;;;;;5115396;28;20058;-37
2023/09/18 07:29:20;;;;;;;3.63;2.65;;;21.00;89.10;;;;;;5115485;28;20080;-35
2023/09/18 07:31:46;;;;;;;4.38;2.60;;;21.00;88.90;;;;;;5115533;28;20024;-36
2023/09/18 07:34:13;;;;;;;2.83;2.50;;;21.00;88.70;;;;;;5115204;28;20039;-35
2023/09/18 07:36:39;;;;;;;5.28;3.72;;;21.10;88.60;;;;;;5114899;28;20019;-34
2023/09/18 07:39:06;;;;;;;3.72;3.13;;;21.10;88.50;;;;;;5115314;28;20458;-35
2023/09/18 07:41:32;;;;;;;3.58;2.80;;;21.10;88.40;;;;;;5115159;28;20055;-32
2023/09/18 07:43:59;;;;;;;5.93;2.90;;;21.10;88.20;;;;;;5115114;28;20028;-36
2023/09/18 07:46:24;;;;;;;3.72;2.55;;;21.10;88.00;;;;;;5114888;28;20058;-37
2023/09/18 07:48:50;;;;;;;3.03;2.60;;;21.10;87.90;;;;;;5115161;28;20051;-37
2023/09/18 07:51:16;;;;;;;3.90;2.70;;;21.10;87.80;;;;;;5115076;28;20432;-36
2023/09/18 07:53:42;;;;;;;3.55;2.78;;;21.10;87.70;;;;;;5114447;28;20026;-37
2023/09/18 07:56:08;;;;;;;4.10;2.67;;;21.10;87.60;;;;;;5114671;28;20496;-35
2023/09/18 07:58:38;;;;;;;4.18;2.13;;;21.10;88.10;;;;;;5114947;28;20016;-36
2023/09/18 08:01:05;;;;;;;3.33;2.30;;;21.10;87.50;;;;;;5113926;28;20537;-36
2023/09/18 08:03:31;;;;;;;2.90;2.00;;;21.10;87.30;;;;;;5114838;28;20111;-35
2023/09/18 08:05:57;;;;;;;1.90;1.80;;;21.10;87.20;;;;;;5114847;28;20445;-35
2023/09/18 08:08:26;;;;;;;2.35;2.03;;;21.10;87.00;;;;;;5096360;28;20030;-35
2023/09/18 08:10:52;;;;;;;4.53;1.92;;;21.10;87.00;;;;;;5096103;28;20030;-37
2023/09/18 08:13:19;;;;;;;2.42;2.05;;;21.10;86.80;;;;;;5114179;28;20430;-36
2023/09/18 08:15:45;;;;;;;1.95;1.85;;;21.20;86.80;;;;;;5114397;28;20016;-36
2023/09/18 08:18:13;;;;;;;4.28;2.00;;;21.20;86.70;;;;;;5095917;28;20020;-34
2023/09/18 08:20:42;;;;;;;2.40;1.63;;;21.20;86.50;;;;;;5114385;28;20024;-35
2023/09/18 08:23:09;;;;;;;3.83;1.90;;;21.20;86.40;;;;;;5113968;28;20034;-35
2023/09/18 08:25:34;;;;;;;2.92;2.00;;;21.30;86.30;;;;;;5114225;28;20023;-36
2023/09/18 08:28:01;;;;;;;1.90;1.65;;;21.30;86.20;;;;;;5113993;28;20505;-36
2023/09/18 08:30:26;;;;;;;3.90;1.80;;;21.30;86.00;;;;;;5114045;28;20046;-36
2023/09/18 08:32:52;;;;;;;2.88;1.80;;;21.40;86.00;;;;;;5113869;28;20027;-36
2023/09/18 08:35:17;;;;;;;5.25;2.20;;;21.40;85.90;;;;;;5114015;28;20023;-36
2023/09/18 08:37:43;;;;;;;5.18;1.80;;;21.40;85.60;;;;;;5113865;28;20048;-36
2023/09/18 08:40:13;;;;;;;4.00;1.95;;;21.40;85.40;;;;;;5113890;28;20043;-34
2023/09/18 08:42:45;;;;;;;2.05;1.85;;;21.50;85.30;;;;;;5114014;28;20107;-34
2023/09/18 08:45:18;;;;;;;2.70;1.60;;;21.50;85.20;;;;;;5113511;28;20035;-37
2023/09/18 08:47:46;;;;;;;1.98;1.77;;;21.50;85.10;;;;;;5113688;28;20035;-40
2023/09/18 08:50:13;;;;;;;2.70;1.90;;;21.60;85.00;;;;;;5095170;28;20031;-37
2023/09/18 08:52:39;;;;;;;2.03;1.65;;;21.60;84.80;;;;;;5113435;28;20042;-37
2023/09/18 08:55:07;;;;;;;2.08;1.55;;;21.70;84.50;;;;;;5095097;28;20068;-36
2023/09/18 08:57:35;;;;;;;3.60;1.75;;;21.70;84.30;;;;;;5113916;28;20362;-35
2023/09/18 09:00:06;;;;;;;2.20;1.50;;;21.60;84.40;;;;;;5113608;28;20370;-35
2023/09/18 09:02:33;;;;;;;4.18;1.85;;;21.70;84.30;;;;;;5095125;28;20166;-35
2023/09/18 09:04:58;;;;;;;2.40;1.70;;;21.60;84.10;;;;;;5094987;28;20084;-35
2023/09/18 09:07:25;;;;;;;2.20;1.50;;;21.60;83.90;;;;;;5113651;28;20314;-37
2023/09/18 09:09:50;;;;;;;2.40;1.55;;;21.70;83.80;;;;;;5095064;28;20032;-35
2023/09/18 09:12:37;;;;;;;1.95;1.35;;;21.70;83.70;;;;;;5112003;28;20377;-43
2023/09/18 09:15:06;;;;;;;2.75;1.60;;;21.70;83.60;;;;;;5113175;28;20042;-35
2023/09/18 09:17:32;;;;;;;4.45;1.50;;;21.70;83.40;;;;;;5113179;28;20111;-36
2023/09/18 09:20:12;;;;;;;2.50;1.70;;;21.80;83.40;;;;;;5113264;28;20149;-34
2023/09/18 09:22:40;;;;;;;3.60;1.70;;;21.80;83.30;;;;;;5112875;28;20108;-36
2023/09/18 09:25:21;;;;;;;4.35;1.70;;;21.80;83.00;;;;;;5112771;28;20031;-38
2023/09/18 09:27:47;;;;;;;3.22;2.03;;;21.80;82.80;;;;;;5112791;28;20062;-41
2023/09/18 09:30:23;;;;;;;3.28;1.50;;;21.90;82.70;;;;;;5112756;28;20038;-35
2023/09/18 09:32:50;;;;;;;1.52;1.42;;;21.90;82.60;;;;;;5112683;28;20035;-35
2023/09/18 09:35:27;;;;;;;2.50;1.55;;;21.90;82.50;;;;;;5094560;28;20049;-37
2023/09/18 09:37:55;;;;;;;1.50;1.33;;;22.00;82.50;;;;;;5112736;28;20051;-35
2023/09/18 09:40:22;;;;;;;2.17;1.80;;;22.00;82.40;;;;;;5112642;28;20102;-36
2023/09/18 09:42:51;;;;;;;2.97;1.55;;;22.20;82.10;;;;;;5112557;28;20036;-35
2023/09/18 09:45:17;;;;;;;1.65;1.30;;;22.30;81.70;;;;;;5112850;28;20080;-38
2023/09/18 09:47:43;;;;;;;3.10;1.90;;;22.30;81.60;;;;;;5112804;28;20222;-36
2023/09/18 09:50:16;;;;;;;3.85;1.65;;;22.30;81.20;;;;;;5094270;28;20115;-36
2023/09/18 09:52:53;;;;;;;2.60;1.60;;;22.30;81.80;;;;;;5112372;28;20058;-30
2023/09/18 09:55:23;;;;;;;2.40;1.50;;;22.30;80.80;;;;;;5112390;28;20023;-33
2023/09/18 09:57:59;;;;;;;5.47;1.67;;;22.40;80.70;;;;;;5112716;28;20115;-33
2023/09/18 10:00:49;;;;;;;5.10;2.13;;;22.40;80.60;;;;;;5112659;28;20030;-36
2023/09/18 10:03:17;;;;;;;4.00;1.70;;;22.40;80.30;;;;;;5112083;28;20042;-36
2023/09/18 10:05:45;;;;;;;3.00;1.50;;;22.40;80.30;;;;;;5112387;28;20024;-36
2023/09/18 10:08:21;;;;;;;1.95;1.40;;;22.40;80.30;;;;;;5094087;28;20024;-35
2023/09/18 10:10:49;;;;;;;1.80;1.65;;;22.40;80.30;;;;;;5112345;28;20027;-35
2023/09/18 10:13:28;;;;;;;2.22;1.10;;;22.40;80.00;;;;;;5112435;28;20078;-37
2023/09/18 10:15:55;;;;;;;1.85;1.60;;;22.40;79.90;;;;;;5112097;28;20531;-35
2023/09/18 10:18:36;;;;;;;1.58;1.30;;;22.40;79.90;;;;;;5112028;28;20560;-35
2023/09/18 10:21:24;;;;;;;1.92;1.48;;;22.50;79.70;;;;;;5112035;28;20062;-36
2023/09/18 10:24:04;;;;;;;1.98;1.40;;;22.60;79.30;;;;;;5111690;28;20032;-36
2023/09/18 10:26:33;;;;;;;2.30;1.75;;;22.60;78.90;;;;;;5112115;28;20032;-35
2023/09/18 10:29:03;;;;;;;2.00;1.63;;;22.70;78.60;;;;;;5111791;28;20130;-36
2023/09/18 10:31:29;;;;;;;3.33;1.48;;;22.70;78.30;;;;;;5112168;28;20481;-36
2023/09/18 10:34:00;;;;;;;3.92;1.95;;;22.70;78.30;;;;;;5093498;28;20036;-37
2023/09/18 10:36:26;;;;;;;1.98;1.58;;;22.60;78.40;;;;;;5111779;28;20026;-36
2023/09/18 10:38:54;;;;;;;3.53;1.50;;;22.60;78.40;;;;;;5112110;28;20024;-37
2023/09/18 10:41:22;;;;;;;3.58;1.73;;;22.60;78.20;;;;;;5111868;28;20016;-35
2023/09/18 10:43:49;;;;;;;3.30;1.70;;;22.70;78.00;;;;;;5112064;28;20481;-37
2023/09/18 10:46:15;;;;;;;3.85;1.70;;;22.80;77.80;;;;;;5111641;28;20027;-36
2023/09/18 10:48:46;;;;;;;2.70;1.65;;;22.90;77.90;;;;;;5111761;28;20024;-36
2023/09/18 10:51:13;;;;;;;3.60;1.83;;;22.90;77.70;;;;;;5111609;28;20060;-36
2023/09/18 10:53:40;;;;;;;3.42;2.03;;;22.90;77.10;;;;;;5093194;28;20393;-35
2023/09/18 10:56:06;;;;;;;3.20;1.70;;;22.90;77.20;;;;;;5111662;28;20150;-35
2023/09/18 10:58:38;;;;;;;3.00;1.77;;;22.90;77.10;;;;;;5111767;28;20047;-36
2023/09/18 11:01:05;;;;;;;1.85;1.73;;;22.90;77.00;;;;;;5111947;28;20031;-36
2023/09/18 11:03:33;;;;;;;2.92;1.98;;;22.90;76.80;;;;;;5111423;28;20034;-41
2023/09/18 11:06:14;;;;;;;3.70;2.00;;;22.90;76.50;;;;;;5111638;28;20048;-35
2023/09/18 11:08:53;;;;;;;2.65;1.90;;;22.80;76.40;;;;;;5111589;28;20020;-36
2023/09/18 11:11:25;;;;;;;3.60;2.00;;;22.70;76.30;;;;;;5111440;28;20024;-36
2023/09/18 11:13:55;;;;;;;2.45;1.77;;;22.70;76.40;;;;;;5094427;28;20034;-36
2023/09/18 11:16:26;;;;;;;5.00;2.17;;;22.70;76.40;;;;;;5111478;28;20073;-35
2023/09/18 11:19:13;;;;;;;4.85;1.88;;;22.80;76.20;;;;;;5111404;28;20069;-36
2023/09/18 11:21:39;;;;;;;3.80;1.85;;;22.70;76.00;;;;;;5111354;28;20020;-35
2023/09/18 11:24:26;;;;;;;3.90;1.70;;;22.70;76.20;;;;;;5111275;28;20361;-36
2023/09/18 11:26:52;;;;;;;3.22;2.10;;;22.70;76.20;;;;;;5110592;28;20430;-35
2023/09/18 11:29:22;;;;;;;3.88;1.90;;;22.70;76.00;;;;;;5111337;28;20436;-36
2023/09/18 11:31:57;;;;;;;2.75;2.22;;;22.60;75.80;;;;;;5112050;28;20023;-36
2023/09/18 11:34:38;;;;;;;4.13;2.00;;;22.60;75.90;;;;;;5093350;28;20042;-35
2023/09/18 11:37:21;;;;;;;3.17;2.05;;;22.60;75.90;;;;;;5115029;28;20019;-36
2023/09/18 11:39:47;;;;;;;4.15;1.95;;;22.60;76.00;;;;;;5115042;28;20065;-35
2023/09/18 11:42:19;;;;;;;5.28;2.20;;;22.50;76.00;;;;;;5114834;28;20639;-35
2023/09/18 11:44:48;;;;;;;3.78;1.80;;;22.40;76.00;;;;;;5114787;28;20496;-36
2023/09/18 11:47:22;;;;;;;3.33;2.10;;;22.30;76.30;;;;;;5114618;28;20088;-34
2023/09/18 11:50:11;;;;;;;2.78;1.85;;;22.30;76.50;;;;;;5114799;28;20472;-35
2023/09/18 11:52:37;;;;;;;4.65;2.50;;;22.20;76.60;;;;;;5114683;28;20042;-35
2023/09/18 11:55:03;;;;;;;3.33;2.08;;;22.20;76.80;;;;;;5114741;28;20255;-32
2023/09/18 11:57:35;;;;;;;2.33;1.90;;;22.20;77.00;;;;;;5114717;28;20094;-35
2023/09/18 12:00:11;;;;;;;3.33;2.10;;;22.30;77.00;;;;;;5114622;28;20406;-35
2023/09/18 12:02:40;;;;;;;4.53;2.22;;;22.40;76.70;;;;;;5114477;28;20027;-35
2023/09/18 12:05:17;;;;;;;2.50;1.90;;;22.60;76.50;;;;;;5114559;28;20027;-36
2023/09/18 12:07:45;;;;;;;2.67;1.80;;;22.70;76.40;;;;;;5114413;28;20238;-35
2023/09/18 12:10:14;;;;;;;4.20;2.47;;;22.90;75.90;;;;;;5114543;28;20099;-36
2023/09/18 12:12:42;;;;;;;8.20;2.00;;;23.00;75.70;;;;;;5096030;28;20052;-36
2023/09/18 12:15:11;;;;;;;3.60;2.05;;;23.10;75.40;;;;;;5114322;28;20052;-36
2023/09/18 12:17:36;;;;;;;3.58;2.20;;;23.20;75.10;;;;;;5114199;28;20076;-37
2023/09/18 12:20:04;;;;;;;2.33;1.90;;;23.30;74.60;;;;;;5114290;28;20102;-35
2023/09/18 12:22:31;;;;;;;3.55;2.10;;;23.50;74.20;;;;;;5095767;28;20068;-35
2023/09/18 12:25:18;;;;;;;3.67;2.17;;;23.50;74.30;;;;;;5114046;28;20453;-35
2023/09/18 12:27:44;;;;;;;2.45;1.90;;;23.60;73.20;;;;;;5113994;28;20051;-36
2023/09/18 12:30:11;;;;;;;2.92;2.20;;;23.60;73.00;;;;;;5113998;28;20019;-34
2023/09/18 12:32:38;;;;;;;3.35;2.08;;;23.60;72.60;;;;;;5113624;28;20028;-34
2023/09/18 12:35:06;;;;;;;2.10;1.90;;;23.50;72.30;;;;;;5113628;28;20114;-36
2023/09/18 12:37:34;;;;;;;5.15;2.08;;;23.60;72.40;;;;;;5095528;28;20022;-36
2023/09/18 12:39:59;;;;;;;2.50;1.90;;;23.70;72.20;;;;;;5114106;28;20027;-36
2023/09/18 12:42:26;;;;;;;2.40;2.05;;;23.70;72.00;;;;;;5113555;28;20157;-36
2023/09/18 12:44:52;;;;;;;3.17;2.20;;;23.80;72.10;;;;;;5113446;28;20457;-36
2023/09/18 12:47:18;;;;;;;2.10;1.90;;;23.90;71.90;;;;;;5113247;28;20024;-36
2023/09/18 12:49:44;;;;;;;6.78;2.30;;;23.90;71.80;;;;;;5113471;28;20024;-36